Time;durP1;ratioP1;P1;durP2;ratioP2;P2;SDS_P1;SDS_P2;PMS_P1;PMS_P2;Temp;Humidity;BMP_temperature;BMP_pressure;BME280_temperature;BME280_humidity;BME280_pressure;Samples;Min_cycle;Max_cycle;Signal;HPM_P1;HPM_P2
2022/04/09 00:00:37;;;;;;;13.50;2.28;;;;;;;7.81;63.27;100614.19;4940448;28;20042;-60
2022/04/09 00:03:03;;;;;;;16.98;1.90;;;;;;;7.64;64.06;100608.63;4952427;28;20050;-60
2022/04/09 00:05:28;;;;;;;12.13;2.22;;;;;;;7.50;64.13;100612.66;4959708;28;20101;-60
2022/04/09 00:07:54;;;;;;;14.63;2.13;;;;;;;7.39;64.48;100614.13;4958222;28;20053;-60
2022/04/09 00:10:19;;;;;;;15.18;2.10;;;;;;;7.43;64.23;100611.66;4948058;28;22394;-59
2022/04/09 00:12:46;;;;;;;9.70;1.90;;;;;;;7.35;64.56;100613.19;4964170;28;20172;-60
2022/04/09 00:15:16;;;;;;;10.43;1.85;;;;;;;7.41;64.58;100620.22;4957967;28;20038;-59
2022/04/09 00:17:43;;;;;;;10.25;1.83;;;;;;;7.42;65.00;100625.44;4945846;28;20438;-59
2022/04/09 00:20:10;;;;;;;14.50;2.30;;;;;;;7.51;65.31;100630.81;4943355;28;20074;-60
2022/04/09 00:22:38;;;;;;;13.10;2.08;;;;;;;7.46;65.33;100635.03;4949966;28;20085;-59
2022/04/09 00:25:08;;;;;;;17.83;2.40;;;;;;;7.51;65.07;100633.41;4954405;28;20050;-60
2022/04/09 00:27:33;;;;;;;21.58;2.60;;;;;;;7.51;65.15;100637.72;4958028;28;20042;-59
2022/04/09 00:29:59;;;;;;;15.18;2.17;;;;;;;7.48;65.86;100633.38;4945487;28;20098;-61
2022/04/09 00:32:24;;;;;;;12.75;2.00;;;;;;;7.62;64.88;100639.72;4944047;28;20035;-63
2022/04/09 00:34:49;;;;;;;12.25;2.10;;;;;;;7.82;64.15;100644.44;4963035;28;20297;-59
2022/04/09 00:37:15;;;;;;;13.52;1.98;;;;;;;7.98;63.24;100649.13;4951984;28;20053;-60
2022/04/09 00:39:40;;;;;;;15.20;2.45;;;;;;;7.95;63.15;100647.34;4950857;28;20525;-59
2022/04/09 00:42:13;;;;;;;17.45;2.63;;;;;;;7.98;62.43;100641.34;4947669;28;20046;-59
2022/04/09 00:44:38;;;;;;;18.10;2.65;;;;;;;7.91;62.74;100649.84;4961841;28;20073;-60
2022/04/09 00:47:03;;;;;;;16.15;2.30;;;;;;;7.86;62.61;100654.94;4950075;28;20122;-60
2022/04/09 00:49:29;;;;;;;10.63;2.17;;;;;;;7.89;62.70;100657.59;4954393;28;20047;-60
2022/04/09 00:51:56;;;;;;;15.18;2.25;;;;;;;7.88;62.63;100666.22;4946861;28;20379;-59
2022/04/09 00:54:24;;;;;;;15.25;2.60;;;;;;;7.84;62.99;100669.59;4957289;28;20495;-60
2022/04/09 00:56:52;;;;;;;15.20;2.28;;;;;;;7.79;62.91;100673.81;4957456;28;20045;-60
2022/04/09 00:59:21;;;;;;;16.30;2.50;;;;;;;7.80;62.11;100675.59;4945961;28;20058;-60
2022/04/09 01:01:48;;;;;;;13.95;2.10;;;;;;;7.73;61.74;100678.88;4958498;28;20520;-61
2022/04/09 01:04:17;;;;;;;14.65;2.38;;;;;;;7.78;61.42;100690.22;4953649;28;20357;-59
2022/04/09 01:06:42;;;;;;;18.10;2.28;;;;;;;7.72;61.48;100690.97;4955463;28;20520;-60
2022/04/09 01:09:26;;;;;;;12.07;2.42;;;;;;;7.80;60.94;100693.75;4958373;28;20043;-60
2022/04/09 01:11:52;;;;;;;14.10;2.22;;;;;;;7.85;60.93;100699.03;4951113;28;20038;-59
2022/04/09 01:14:18;;;;;;;11.05;1.90;;;;;;;7.91;60.10;100701.75;4943820;28;20549;-59
2022/04/09 01:16:43;;;;;;;16.38;2.13;;;;;;;8.08;59.76;100705.56;4950188;28;20100;-58
2022/04/09 01:19:08;;;;;;;15.23;2.20;;;;;;;8.09;59.89;100717.72;4956115;28;20362;-59
2022/04/09 01:21:34;;;;;;;12.15;2.22;;;;;;;8.38;59.78;100728.72;4955646;28;20484;-59
2022/04/09 01:24:01;;;;;;;11.35;2.05;;;;;;;8.41;59.29;100732.28;4949799;28;20053;-60
2022/04/09 01:26:26;;;;;;;12.48;1.75;;;;;;;8.22;58.48;100734.44;4949834;28;20382;-59
2022/04/09 01:28:52;;;;;;;8.48;1.80;;;;;;;8.37;58.60;100738.22;4954770;28;20050;-60
2022/04/09 01:31:18;;;;;;;19.55;2.35;;;;;;;8.29;59.12;100736.31;4956488;28;20490;-59
2022/04/09 01:33:44;;;;;;;13.07;2.03;;;;;;;8.18;59.69;100740.38;4951347;28;20057;-59
2022/04/09 01:36:09;;;;;;;13.57;2.30;;;;;;;8.18;58.97;100750.75;4937066;28;20149;-59
2022/04/09 01:38:45;;;;;;;9.30;1.65;;;;;;;8.19;57.92;100760.31;4956406;28;20809;-59
2022/04/09 01:41:12;;;;;;;11.40;1.95;;;;;;;8.27;57.16;100758.75;4947697;28;20074;-59
2022/04/09 01:43:40;;;;;;;6.82;1.55;;;;;;;8.26;56.84;100759.59;4944741;28;20560;-60
2022/04/09 01:46:05;;;;;;;10.07;1.50;;;;;;;8.20;56.98;100762.94;4941980;28;20041;-59
2022/04/09 01:48:31;;;;;;;8.63;1.60;;;;;;;8.17;56.71;100754.22;4951468;28;20402;-59
2022/04/09 01:50:56;;;;;;;11.40;1.70;;;;;;;8.10;57.23;100754.09;4957608;28;20577;-60
2022/04/09 01:53:22;;;;;;;8.07;1.88;;;;;;;8.01;57.20;100759.09;4959572;28;20603;-59
2022/04/09 01:55:47;;;;;;;7.97;1.50;;;;;;;7.92;57.55;100756.31;4955648;28;20923;-60
2022/04/09 01:58:12;;;;;;;9.82;1.65;;;;;;;7.77;58.20;100758.53;4945175;28;20169;-60
2022/04/09 02:00:38;;;;;;;8.40;1.60;;;;;;;7.59;59.05;100769.38;4956449;28;20467;-60
2022/04/09 02:03:03;;;;;;;6.25;1.50;;;;;;;7.55;59.38;100769.28;4954586;28;20121;-60
2022/04/09 02:05:29;;;;;;;15.85;1.90;;;;;;;7.37;60.47;100771.41;4953735;28;20736;-59
2022/04/09 02:07:58;;;;;;;9.48;1.67;;;;;;;7.29;60.83;100773.81;4938351;28;20046;-59
2022/04/09 02:10:23;;;;;;;11.07;2.35;;;;;;;7.18;61.21;100773.56;4951483;28;20054;-59
2022/04/09 02:12:48;;;;;;;13.40;2.00;;;;;;;7.14;61.85;100776.88;4953443;28;20081;-59
2022/04/09 02:15:16;;;;;;;13.32;2.03;;;;;;;7.24;61.79;100783.22;4951028;28;20208;-60
2022/04/09 02:17:42;;;;;;;12.18;2.42;;;;;;;7.20;62.26;100789.13;4953057;28;20038;-58
2022/04/09 02:20:10;;;;;;;12.38;2.08;;;;;;;7.26;62.43;100790.16;4962527;28;20053;-60
2022/04/09 02:22:40;;;;;;;18.02;2.42;;;;;;;7.24;63.11;100798.75;4944887;28;20046;-60
2022/04/09 02:25:08;;;;;;;15.10;2.50;;;;;;;7.32;63.04;100802.41;4951429;28;20189;-59
2022/04/09 02:27:36;;;;;;;15.98;2.50;;;;;;;7.37;62.90;100799.94;4954252;28;20069;-58
2022/04/09 02:30:04;;;;;;;14.13;2.28;;;;;;;7.34;63.30;100809.41;4945511;28;20046;-61
2022/04/09 02:32:29;;;;;;;18.17;2.20;;;;;;;7.41;63.88;100806.97;4951435;28;20469;-59
2022/04/09 02:34:56;;;;;;;13.73;2.25;;;;;;;7.48;63.87;100809.75;4950853;28;20101;-59
2022/04/09 02:37:21;;;;;;;12.82;2.50;;;;;;;7.50;64.00;100804.59;4956130;28;20386;-59
2022/04/09 02:39:51;;;;;;;20.20;2.50;;;;;;;7.62;63.43;100823.06;4955443;28;20038;-58
2022/04/09 02:42:16;;;;;;;19.33;2.20;;;;;;;7.57;63.55;100820.34;4947739;28;20116;-59
2022/04/09 02:44:43;;;;;;;13.80;2.42;;;;;;;7.53;63.28;100809.84;4953371;28;20613;-59
2022/04/09 02:47:09;;;;;;;17.15;2.60;;;;;;;7.50;63.05;100823.59;4952270;28;20517;-58
2022/04/09 02:49:34;;;;;;;14.88;2.30;;;;;;;7.58;61.86;100811.72;4951278;28;20133;-58
2022/04/09 02:51:59;;;;;;;10.30;1.98;;;;;;;7.65;60.73;100820.53;4951806;28;20493;-60
2022/04/09 02:54:25;;;;;;;12.02;2.25;;;;;;;7.63;60.53;100823.06;4966333;28;20431;-60
2022/04/09 02:56:50;;;;;;;13.25;2.03;;;;;;;7.65;60.46;100824.00;4950389;28;20046;-59
2022/04/09 02:59:15;;;;;;;11.15;2.08;;;;;;;7.61;60.22;100822.19;4958583;28;20154;-60
2022/04/09 03:01:43;;;;;;;8.05;2.00;;;;;;;7.70;59.93;100824.09;4944483;28;20062;-59
2022/04/09 03:04:09;;;;;;;14.10;1.75;;;;;;;7.77;59.66;100822.53;4946891;28;20069;-59
2022/04/09 03:06:34;;;;;;;9.43;1.80;;;;;;;7.71;60.04;100841.44;4951299;28;20539;-58
2022/04/09 03:08:59;;;;;;;8.95;1.85;;;;;;;7.69;60.54;100835.31;4954511;28;20137;-59
2022/04/09 03:11:25;;;;;;;9.20;1.67;;;;;;;7.75;60.31;100831.16;4958466;28;20126;-60
2022/04/09 03:13:50;;;;;;;13.90;2.17;;;;;;;7.84;59.93;100840.00;4958279;28;20033;-60
2022/04/09 03:16:16;;;;;;;11.82;1.90;;;;;;;7.86;59.94;100849.59;4951426;28;20043;-59
2022/04/09 03:18:41;;;;;;;12.90;2.00;;;;;;;7.75;59.80;100846.72;4954155;28;20354;-60
2022/04/09 03:21:06;;;;;;;13.63;1.90;;;;;;;7.87;58.82;100855.69;4946827;28;20050;-59
2022/04/09 03:23:31;;;;;;;11.68;2.03;;;;;;;7.92;57.89;100859.25;4955704;28;20366;-59
2022/04/09 03:25:57;;;;;;;11.07;2.10;;;;;;;7.87;58.28;100855.69;4945396;28;20385;-58
2022/04/09 03:28:22;;;;;;;12.55;2.00;;;;;;;7.96;57.41;100856.75;4943303;28;20046;-59
2022/04/09 03:30:48;;;;;;;9.93;1.92;;;;;;;7.94;57.69;100860.16;4957810;28;20144;-59
2022/04/09 03:33:13;;;;;;;15.57;2.15;;;;;;;7.90;58.03;100864.41;4944448;28;20566;-60
2022/04/09 03:35:40;;;;;;;9.43;1.63;;;;;;;7.86;57.39;100870.38;4953108;28;20653;-59
2022/04/09 03:38:05;;;;;;;12.10;1.98;;;;;;;8.02;56.76;100882.88;4947939;28;20054;-60
2022/04/09 03:40:31;;;;;;;10.00;1.95;;;;;;;8.05;56.40;100876.88;4950266;28;20038;-60
2022/04/09 03:42:56;;;;;;;11.45;1.98;;;;;;;8.10;56.18;100870.94;4956500;28;20073;-60
2022/04/09 03:45:42;;;;;;;9.75;1.88;;;;;;;8.07;56.97;100882.97;4956265;28;20642;-60
2022/04/09 03:48:07;;;;;;;9.60;2.25;;;;;;;8.07;57.02;100878.66;4947283;28;20741;-58
2022/04/09 03:50:32;;;;;;;13.25;2.10;;;;;;;8.05;57.00;100880.31;4956820;28;20046;-58
2022/04/09 03:52:58;;;;;;;9.43;1.83;;;;;;;8.13;57.59;100885.69;4955158;28;20092;-59
2022/04/09 03:55:25;;;;;;;11.50;2.28;;;;;;;8.05;58.11;100872.53;4942992;28;20050;-58
2022/04/09 03:57:50;;;;;;;12.63;2.20;;;;;;;8.18;58.22;100884.09;4958836;28;20049;-58
2022/04/09 04:00:16;;;;;;;8.98;2.22;;;;;;;8.20;59.23;100894.50;4946270;28;20176;-60
2022/04/09 04:02:42;;;;;;;10.85;2.47;;;;;;;8.18;59.91;100899.66;4958513;28;20124;-59
2022/04/09 04:05:08;;;;;;;22.63;2.53;;;;;;;8.17;59.67;100892.75;4957277;28;20129;-59
2022/04/09 04:07:34;;;;;;;19.75;2.70;;;;;;;8.08;60.08;100901.19;4952298;28;20130;-60
2022/04/09 04:10:10;;;;;;;19.00;2.33;;;;;;;8.12;60.16;100902.13;4950859;28;20045;-60
2022/04/09 04:12:36;;;;;;;17.33;2.33;;;;;;;8.18;60.22;100909.16;4956267;28;20157;-59
2022/04/09 04:15:23;;;;;;;19.05;2.50;;;;;;;8.20;59.93;100912.69;4957547;28;20046;-60
2022/04/09 04:17:49;;;;;;;16.65;2.10;;;;;;;8.23;59.56;100920.56;4953740;28;20051;-59
2022/04/09 04:20:15;;;;;;;15.43;1.85;;;;;;;8.13;59.34;100917.75;4942243;28;20358;-58
2022/04/09 04:22:40;;;;;;;12.90;2.65;;;;;;;8.14;59.15;100924.69;4951846;28;20572;-60
2022/04/09 04:25:06;;;;;;;14.93;2.40;;;;;;;8.04;59.64;100925.34;4957366;28;20050;-59
2022/04/09 04:27:32;;;;;;;15.77;2.60;;;;;;;8.01;59.74;100935.63;4941062;28;20065;-59
2022/04/09 04:30:03;;;;;;;12.95;2.15;;;;;;;7.91;60.02;100937.97;4943273;28;20688;-59
2022/04/09 04:32:28;;;;;;;13.15;2.30;;;;;;;7.95;59.87;100934.59;4960001;28;20414;-60
2022/04/09 04:34:53;;;;;;;17.33;2.65;;;;;;;7.92;59.66;100937.13;4957906;28;20043;-59
2022/04/09 04:37:19;;;;;;;14.85;2.25;;;;;;;7.98;58.87;100938.16;4951140;28;20731;-60
2022/04/09 04:39:44;;;;;;;16.92;2.63;;;;;;;8.01;58.50;100933.03;4954003;28;20565;-59
2022/04/09 04:42:10;;;;;;;7.03;1.83;;;;;;;7.96;58.01;100938.94;4950254;28;20630;-58
2022/04/09 04:44:35;;;;;;;17.42;2.30;;;;;;;7.95;58.67;100943.25;4954167;28;20061;-58
2022/04/09 04:47:01;;;;;;;9.50;1.98;;;;;;;7.96;58.81;100945.03;4948108;28;20051;-59
2022/04/09 04:49:26;;;;;;;13.25;2.38;;;;;;;7.94;59.09;100945.81;4954269;28;20039;-59
2022/04/09 04:51:51;;;;;;;14.88;2.58;;;;;;;7.92;59.22;100948.38;4941930;28;20660;-59
2022/04/09 04:54:17;;;;;;;11.88;2.42;;;;;;;7.96;59.42;100957.13;4942197;28;20951;-59
2022/04/09 04:56:42;;;;;;;12.65;2.38;;;;;;;8.04;59.42;100953.88;4953238;28;20053;-59
2022/04/09 04:59:08;;;;;;;14.40;2.60;;;;;;;8.15;58.98;100955.03;4966983;28;20074;-59
2022/04/09 05:01:34;;;;;;;13.45;2.40;;;;;;;8.30;59.38;100964.91;4935565;28;20049;-59
2022/04/09 05:04:00;;;;;;;11.65;2.30;;;;;;;8.48;59.26;100964.47;4950698;28;20053;-59
2022/04/09 05:06:26;;;;;;;13.63;2.70;;;;;;;8.49;58.66;100974.03;4953162;28;20183;-60
2022/04/09 05:08:51;;;;;;;11.55;2.10;;;;;;;8.68;58.03;100981.41;4957852;28;20041;-59
2022/04/09 05:11:17;;;;;;;9.50;1.40;;;;;;;8.71;56.13;100985.81;4932490;28;21427;-57
2022/04/09 05:13:42;;;;;;;9.07;1.42;;;;;;;8.71;56.07;100980.59;4954930;28;20049;-58
2022/04/09 05:16:08;;;;;;;7.25;1.42;;;;;;;8.75;56.02;100985.03;4945268;28;20050;-58
2022/04/09 05:18:34;;;;;;;10.57;1.40;;;;;;;8.69;56.43;100984.88;4950540;28;20038;-58
2022/04/09 05:20:59;;;;;;;6.32;1.30;;;;;;;8.65;57.26;100996.06;4946585;28;20077;-59
2022/04/09 05:23:25;;;;;;;9.80;1.20;;;;;;;8.63;57.25;101003.81;4959636;28;20498;-59
2022/04/09 05:25:50;;;;;;;6.68;1.27;;;;;;;8.61;57.53;101018.50;4955075;28;20670;-58
2022/04/09 05:28:16;;;;;;;7.45;1.77;;;;;;;8.67;58.32;101023.81;4930964;28;20351;-60
2022/04/09 05:30:44;;;;;;;7.65;1.40;;;;;;;8.69;58.95;101029.94;4957053;28;20074;-59
2022/04/09 05:33:09;;;;;;;10.68;1.85;;;;;;;8.74;58.75;101037.84;4941163;28;20093;-59
2022/04/09 05:35:35;;;;;;;8.68;1.80;;;;;;;8.58;57.87;101030.53;4955904;28;20125;-60
2022/04/09 05:38:03;;;;;;;7.82;1.95;;;;;;;8.45;56.95;101031.97;4947754;28;20058;-59
2022/04/09 05:40:29;;;;;;;7.10;1.88;;;;;;;8.25;57.67;101025.34;4939431;28;20043;-59
2022/04/09 05:42:54;;;;;;;5.53;1.85;;;;;;;8.26;58.42;101020.22;4957237;28;20053;-60
2022/04/09 05:45:19;;;;;;;8.98;2.08;;;;;;;8.28;59.07;101023.72;4938421;28;20070;-58
2022/04/09 05:48:02;;;;;;;9.98;2.03;;;;;;;8.15;60.71;101032.94;4954960;28;20134;-58
2022/04/09 05:50:27;;;;;;;8.43;2.30;;;;;;;8.01;62.04;101057.66;4955700;28;20057;-60
2022/04/09 05:52:54;;;;;;;15.05;2.70;;;;;;;7.93;62.94;101053.97;4954049;28;20545;-59
2022/04/09 05:55:19;;;;;;;8.68;2.60;;;;;;;7.90;63.27;101053.88;4948900;28;20034;-59
2022/04/09 05:57:45;;;;;;;9.02;2.33;;;;;;;7.93;62.92;101053.97;4946597;28;20070;-59
2022/04/09 06:00:11;;;;;;;11.48;2.60;;;;;;;7.96;62.59;101061.84;4936574;28;20326;-59
2022/04/09 06:02:39;;;;;;;11.82;2.50;;;;;;;7.97;62.50;101049.75;4951713;28;20078;-58
2022/04/09 06:05:13;;;;;;;10.10;2.65;;;;;;;7.98;62.83;101055.00;4954601;28;20113;-59
2022/04/09 06:07:38;;;;;;;15.40;2.95;;;;;;;8.03;62.70;101068.09;4945064;28;20176;-59
2022/04/09 06:10:06;;;;;;;16.95;2.90;;;;;;;8.08;63.57;101074.28;4945465;28;20123;-58
2022/04/09 06:12:32;;;;;;;12.52;2.90;;;;;;;8.20;63.80;101071.13;4945940;28;20065;-58
2022/04/09 06:14:57;;;;;;;14.30;2.83;;;;;;;8.28;63.51;101072.19;4947974;28;20043;-59
2022/04/09 06:17:26;;;;;;;13.27;2.58;;;;;;;8.45;63.57;101076.13;4952582;28;20538;-59
2022/04/09 06:20:07;;;;;;;11.70;3.00;;;;;;;8.69;62.56;101081.06;4952748;28;20398;-59
2022/04/09 06:22:33;;;;;;;16.50;2.63;;;;;;;8.66;62.83;101079.25;4954896;28;20101;-59
2022/04/09 06:25:12;;;;;;;12.38;2.97;;;;;;;8.77;62.06;101088.19;4954416;28;20827;-58
2022/04/09 06:27:39;;;;;;;13.60;3.00;;;;;;;8.84;61.78;101092.69;4959948;28;20042;-59
2022/04/09 06:30:08;;;;;;;16.85;3.40;;;;;;;8.85;62.03;101091.84;4950461;28;20043;-60
2022/04/09 06:32:33;;;;;;;15.32;3.60;;;;;;;8.85;61.61;101091.84;4954449;28;20050;-59
2022/04/09 06:34:59;;;;;;;10.57;3.28;;;;;;;8.88;61.54;101093.66;4958244;28;20526;-59
2022/04/09 06:37:24;;;;;;;10.32;3.20;;;;;;;8.98;61.41;101106.00;4951153;28;20030;-59
2022/04/09 06:39:49;;;;;;;13.82;3.70;;;;;;;8.95;61.40;101111.16;4950757;28;20073;-60
2022/04/09 06:42:14;;;;;;;15.88;3.35;;;;;;;8.87;61.14;101113.56;4941395;28;20993;-59
2022/04/09 06:44:40;;;;;;;13.27;2.97;;;;;;;8.89;61.54;101118.81;4955341;28;20857;-59
2022/04/09 06:47:08;;;;;;;13.48;3.15;;;;;;;8.87;61.50;101117.88;4940705;28;20035;-59
2022/04/09 06:49:38;;;;;;;12.68;3.17;;;;;;;8.98;61.29;101128.53;4956610;28;20046;-59
2022/04/09 06:52:03;;;;;;;12.63;3.22;;;;;;;9.12;61.36;101132.34;4943316;28;20047;-58
2022/04/09 06:54:29;;;;;;;15.48;3.15;;;;;;;9.20;61.00;101130.81;4943951;28;20046;-59
2022/04/09 06:56:54;;;;;;;17.13;3.35;;;;;;;9.24;61.82;101143.03;4943680;28;20042;-57
2022/04/09 06:59:19;;;;;;;10.70;2.42;;;;;;;9.21;60.83;101167.25;4953338;28;20482;-58
2022/04/09 07:01:45;;;;;;;6.88;1.48;;;;;;;9.16;58.30;101165.38;4949001;28;20573;-59
2022/04/09 07:04:10;;;;;;;9.50;1.95;;;;;;;9.12;59.00;101161.84;4947424;28;20053;-59
2022/04/09 07:06:35;;;;;;;9.57;1.98;;;;;;;9.13;59.48;101165.31;4941755;28;20049;-59
2022/04/09 07:09:01;;;;;;;9.18;2.25;;;;;;;8.96;61.20;101168.38;4950581;28;20038;-59
2022/04/09 07:11:30;;;;;;;10.40;2.70;;;;;;;8.93;61.72;101170.91;4948987;28;20042;-63
2022/04/09 07:13:55;;;;;;;13.57;2.20;;;;;;;8.84;61.08;101170.66;4949134;28;20300;-60
2022/04/09 07:16:21;;;;;;;10.20;2.33;;;;;;;9.00;61.50;101181.47;4944238;28;20141;-60
2022/04/09 07:18:46;;;;;;;8.48;2.20;;;;;;;9.01;60.97;101176.31;4950789;28;20046;-60
2022/04/09 07:21:11;;;;;;;12.77;2.30;;;;;;;9.64;61.31;101174.31;4953900;28;20038;-59
2022/04/09 07:23:37;;;;;;;12.85;2.85;;;;;;;10.94;58.38;101178.59;4948818;28;20058;-61
2022/04/09 07:26:02;;;;;;;11.35;2.10;;;;;;;11.89;55.47;101173.09;4954668;28;20145;-60
2022/04/09 07:28:27;;;;;;;15.70;2.15;;;;;;;12.24;54.13;101180.47;4951401;28;20050;-60
2022/04/09 07:30:53;;;;;;;10.10;2.15;;;;;;;12.22;52.91;101184.78;4946856;28;20033;-59
2022/04/09 07:33:18;;;;;;;12.30;1.98;;;;;;;12.09;51.98;101187.25;4952245;28;20552;-59
2022/04/09 07:35:44;;;;;;;8.98;1.75;;;;;;;11.77;52.28;101186.00;4958774;28;20924;-59
2022/04/09 07:38:09;;;;;;;10.45;1.60;;;;;;;11.50;51.70;101182.94;4940895;28;20374;-59
2022/04/09 07:40:36;;;;;;;6.07;1.60;;;;;;;11.31;52.82;101192.25;4955212;28;20129;-58
2022/04/09 07:43:02;;;;;;;10.88;2.00;;;;;;;11.11;53.86;101194.53;4956281;28;20046;-60
2022/04/09 07:45:28;;;;;;;10.77;1.88;;;;;;;11.61;54.66;101204.88;4946364;28;20592;-58
2022/04/09 07:47:59;;;;;;;6.68;1.80;;;;;;;12.68;52.98;101207.09;4955768;28;20058;-58
2022/04/09 07:50:37;;;;;;;8.13;1.65;;;;;;;13.46;50.05;101199.06;4953997;28;20416;-59
2022/04/09 07:53:02;;;;;;;4.93;1.30;;;;;;;13.93;46.91;101195.84;4959654;28;20484;-59
2022/04/09 07:55:31;;;;;;;4.95;1.38;;;;;;;14.55;45.39;101199.59;4948724;28;20153;-61
2022/04/09 07:57:56;;;;;;;4.40;1.17;;;;;;;14.63;43.58;101207.50;4958903;28;20058;-60
2022/04/09 08:00:23;;;;;;;8.07;1.33;;;;;;;14.35;44.78;101208.25;4935789;28;20509;-57
2022/04/09 08:02:48;;;;;;;6.25;1.35;;;;;;;13.75;44.89;101218.47;4955645;28;20457;-58
2022/04/09 08:05:15;;;;;;;8.60;1.60;;;;;;;13.18;46.21;101249.47;4952240;28;20128;-59
2022/04/09 08:07:41;;;;;;;5.72;1.42;;;;;;;12.34;48.40;101253.78;4954968;28;20041;-59
2022/04/09 08:10:07;;;;;;;6.35;1.50;;;;;;;11.43;49.10;101262.03;4951527;28;20145;-59
2022/04/09 08:12:33;;;;;;;7.05;1.73;;;;;;;10.55;50.75;101262.19;4960263;28;20042;-57
2022/04/09 08:14:59;;;;;;;10.35;2.13;;;;;;;10.28;52.72;101271.22;4954566;28;20050;-59
2022/04/09 08:17:24;;;;;;;6.97;1.70;;;;;;;9.67;54.59;101273.31;4946567;28;20567;-59
2022/04/09 08:19:50;;;;;;;6.95;1.60;;;;;;;9.53;56.15;101276.41;4958956;28;20045;-60
2022/04/09 08:22:16;;;;;;;3.80;1.50;;;;;;;9.30;55.77;101283.66;4941792;28;20939;-60
2022/04/09 08:24:42;;;;;;;10.38;1.60;;;;;;;9.09;56.40;101283.16;4944491;28;20390;-59
2022/04/09 08:27:08;;;;;;;7.55;1.50;;;;;;;9.06;56.95;101285.66;4949384;28;20054;-59
2022/04/09 08:29:34;;;;;;;10.35;1.77;;;;;;;8.99;57.33;101276.81;4943863;28;20145;-59
2022/04/09 08:32:01;;;;;;;12.18;1.92;;;;;;;9.14;57.26;101277.22;4950197;28;20050;-61
2022/04/09 08:34:29;;;;;;;10.77;1.88;;;;;;;9.19;57.31;101269.53;4952528;28;20449;-59
2022/04/09 08:36:55;;;;;;;9.48;1.70;;;;;;;9.43;57.71;101269.25;4945896;28;20081;-59
2022/04/09 08:39:21;;;;;;;8.00;1.70;;;;;;;9.90;57.62;101270.34;4960239;28;20587;-59
2022/04/09 08:41:49;;;;;;;16.60;2.20;;;;;;;10.27;56.88;101269.44;4958005;28;20178;-59
2022/04/09 08:44:15;;;;;;;10.95;2.30;;;;;;;10.84;57.09;101262.78;4946499;28;20471;-59
2022/04/09 08:46:40;;;;;;;11.07;2.58;;;;;;;11.42;57.34;101260.28;4947996;28;20361;-60
2022/04/09 08:49:06;;;;;;;11.70;3.22;;;;;;;11.77;55.08;101257.38;4953891;28;20047;-59
2022/04/09 08:51:33;;;;;;;15.70;3.55;;;;;;;12.23;53.53;101270.19;4956900;28;20180;-59
2022/04/09 08:54:02;;;;;;;11.77;3.08;;;;;;;12.57;51.31;101269.75;4952344;28;20046;-58
2022/04/09 08:56:29;;;;;;;12.27;3.05;;;;;;;13.18;51.17;101279.13;4957497;28;20366;-60
2022/04/09 08:58:57;;;;;;;10.57;2.80;;;;;;;13.71;51.37;101286.56;4944766;28;20153;-60
2022/04/09 09:01:22;;;;;;;13.43;2.72;;;;;;;14.07;49.29;101297.28;4950721;28;20472;-59
2022/04/09 09:03:48;;;;;;;14.13;3.03;;;;;;;13.94;47.60;101291.97;4964939;28;20286;-59
2022/04/09 09:06:30;;;;;;;12.35;2.97;;;;;;;13.79;47.32;101296.22;4938697;28;20243;-59
2022/04/09 09:09:00;;;;;;;12.98;2.95;;;;;;;13.70;48.06;101298.78;4947400;28;20047;-59
2022/04/09 09:11:27;;;;;;;11.65;3.20;;;;;;;13.27;48.96;101308.03;4962459;28;20042;-61
2022/04/09 09:13:54;;;;;;;12.15;3.20;;;;;;;12.93;49.40;101301.53;4955101;28;20267;-60
2022/04/09 09:16:30;;;;;;;10.52;3.30;;;;;;;12.87;49.68;101306.72;4946801;28;20564;-59
2022/04/09 09:18:57;;;;;;;13.95;3.28;;;;;;;12.63;50.99;101302.94;4961291;28;20042;-59
2022/04/09 09:21:29;;;;;;;14.75;3.25;;;;;;;12.39;50.83;101304.41;4953049;28;20145;-60
2022/04/09 09:24:09;;;;;;;14.07;3.22;;;;;;;12.38;51.54;101301.78;4944773;28;20710;-60
2022/04/09 09:26:38;;;;;;;13.07;3.53;;;;;;;12.13;51.26;101308.41;4951557;28;20049;-59
2022/04/09 09:29:04;;;;;;;11.68;3.10;;;;;;;12.32;51.56;101314.78;4950718;28;20054;-59
2022/04/09 09:31:44;;;;;;;8.52;2.88;;;;;;;12.50;51.29;101315.88;4944772;28;20584;-57
2022/04/09 09:34:09;;;;;;;12.02;3.35;;;;;;;12.85;51.40;101325.88;4939016;28;20899;-58
2022/04/09 09:36:36;;;;;;;12.57;3.40;;;;;;;13.14;49.95;101323.59;4952981;28;20153;-58
2022/04/09 09:39:03;;;;;;;15.43;3.50;;;;;;;13.48;49.97;101333.53;4950722;28;20042;-58
2022/04/09 09:41:29;;;;;;;10.63;2.83;;;;;;;13.29;47.46;101334.25;4952889;28;20509;-57
2022/04/09 09:44:05;;;;;;;7.50;2.72;;;;;;;13.50;48.58;101329.19;4949365;28;20086;-57
2022/04/09 09:46:31;;;;;;;12.68;2.90;;;;;;;13.95;49.00;101333.91;4929600;28;20400;-58
2022/04/09 09:48:56;;;;;;;9.23;2.97;;;;;;;14.04;47.02;101333.97;4949169;28;20117;-60
2022/04/09 09:51:23;;;;;;;9.27;2.78;;;;;;;14.10;46.62;101336.63;4956909;28;20042;-60
2022/04/09 09:53:49;;;;;;;9.90;2.90;;;;;;;14.54;46.79;101343.91;4951913;28;20042;-59
2022/04/09 09:56:33;;;;;;;10.27;2.80;;;;;;;14.55;45.97;101349.16;4943138;28;20144;-58
2022/04/09 09:59:00;;;;;;;7.22;2.60;;;;;;;14.48;45.88;101346.50;4947369;28;20047;-60
2022/04/09 10:01:27;;;;;;;10.38;2.78;;;;;;;14.46;45.09;101342.97;4950983;28;20533;-60
2022/04/09 10:03:54;;;;;;;11.82;2.47;;;;;;;14.36;45.68;101323.66;4951898;28;20142;-59
2022/04/09 10:06:21;;;;;;;8.85;2.40;;;;;;;14.34;45.94;101353.38;4952468;28;21919;-58
2022/04/09 10:08:47;;;;;;;9.48;2.35;;;;;;;14.26;45.39;101350.72;4944600;28;20057;-60
2022/04/09 10:11:15;;;;;;;9.82;2.67;;;;;;;14.40;45.95;101359.56;4952644;28;20987;-59
2022/04/09 10:13:43;;;;;;;9.93;2.30;;;;;;;14.51;45.04;101351.78;4949225;28;20058;-57
2022/04/09 10:16:11;;;;;;;9.63;2.53;;;;;;;14.64;44.79;101353.56;4947052;28;20039;-59
2022/04/09 10:18:36;;;;;;;6.57;2.10;;;;;;;14.46;45.95;101363.97;4940959;28;20040;-58
2022/04/09 10:21:02;;;;;;;11.25;2.65;;;;;;;14.48;45.79;101357.88;4951023;28;20487;-58
2022/04/09 10:23:32;;;;;;;7.70;2.30;;;;;;;14.81;45.19;101359.78;4952098;28;20050;-59
2022/04/09 10:25:59;;;;;;;13.98;2.47;;;;;;;14.79;45.56;101360.63;4939201;28;21228;-56
2022/04/09 10:28:38;;;;;;;8.75;2.33;;;;;;;15.01;44.14;101365.06;4945026;28;20046;-59
2022/04/09 10:31:22;;;;;;;5.60;1.85;;;;;;;15.13;43.02;101380.88;4950121;28;20035;-58
2022/04/09 10:33:55;;;;;;;5.90;2.05;;;;;;;14.85;41.85;101384.28;4946697;28;20065;-58
2022/04/09 10:36:45;;;;;;;9.75;2.30;;;;;;;14.75;42.43;101380.75;4940090;28;20062;-55
2022/04/09 10:39:40;;;;;;;8.45;2.10;;;;;;;14.66;43.79;101383.31;4949188;28;20473;-58
2022/04/09 10:42:06;;;;;;;7.35;2.30;;;;;;;14.51;44.13;101397.25;4949643;28;20054;-58
2022/04/09 10:44:52;;;;;;;13.45;2.20;;;;;;;14.34;45.38;101414.56;4956309;28;20201;-58
2022/04/09 10:47:18;;;;;;;10.10;1.60;;;;;;;13.94;43.96;101423.03;4947364;28;21017;-58
2022/04/09 10:50:01;;;;;;;11.32;1.60;;;;;;;13.23;45.75;101431.06;4957404;28;20226;-58
2022/04/09 10:52:28;;;;;;;8.43;1.45;;;;;;;12.26;47.03;101424.50;4946927;28;20579;-60
2022/04/09 10:55:24;;;;;;;12.20;1.42;;;;;;;12.02;47.48;101430.19;4950555;28;20039;-59
2022/04/09 10:57:52;;;;;;;8.65;1.60;;;;;;;12.01;48.05;101429.34;4956438;28;20075;-57
2022/04/09 11:00:23;;;;;;;7.07;1.20;;;;;;;12.09;47.00;101429.44;4948140;28;20133;-58
2022/04/09 11:03:10;;;;;;;7.85;1.40;;;;;;;12.12;46.94;101422.53;4961773;28;20042;-59
2022/04/09 11:05:39;;;;;;;7.03;1.77;;;;;;;12.17;47.74;101433.06;4955322;28;20077;-59
2022/04/09 11:08:08;;;;;;;9.32;1.48;;;;;;;12.12;47.77;101422.53;4947848;28;20397;-58
2022/04/09 11:10:35;;;;;;;6.95;1.60;;;;;;;11.97;48.04;101421.41;4952915;28;20051;-56
2022/04/09 11:13:00;;;;;;;8.35;1.30;;;;;;;12.04;48.66;101433.72;4957988;28;20470;-58
2022/04/09 11:15:28;;;;;;;4.05;1.08;;;;;;;12.22;46.94;101430.50;4948837;28;20042;-57
2022/04/09 11:18:02;;;;;;;6.30;1.15;;;;;;;12.38;46.43;101429.91;4962557;28;20045;-57
2022/04/09 11:20:33;;;;;;;4.25;1.05;;;;;;;12.51;44.68;101432.69;4959103;28;20104;-58
2022/04/09 11:23:08;;;;;;;7.32;1.20;;;;;;;12.58;44.95;101442.41;4932205;28;20999;-56
2022/04/09 11:25:34;;;;;;;4.72;1.00;;;;;;;12.29;44.66;101446.31;4956737;28;20038;-57